Airfield :
LOGIN :

Register | Disclaimer

   EN    FR    IT 

 










Legend :    VFR   Marginal VFR   IFR   Intensive IFR   Very Intensive IFR
Visi :
Ceiling :
>= 8 km
>= 3000ft
5 to 8 km
1000 to 3000 ft
1500m to 5 km
500 to 1000 ft
800 to 1500m
200 to 500 ft
< 800m
< 200 ft
Symbols :   Thunderstorms  Fog  Heavy snow  Heavy precipitations  Wind > 20 kt
SIGMETs :     Misc.  Thunderstorms  Icing  Turbulence  Mountain Waves  Volcanic Ashes






- Airport Elevation : 39 ft
- IATA code : SUF


LICA - Lamezia Terme

CURRENT METAR :
  • 162220Z AUTO 20004KT 9999 SCT200/// 22/15 Q1015

EXPIRED METARs :
  • 162150Z AUTO 21004KT 9999 FEW210/// 22/15 Q1015
  • 162120Z AUTO 22003KT 180V250 9999 FEW210/// 23/19 Q1015
  • 162050Z AUTO 26005KT 9999 BKN200/// 23/19 Q1015
  • 162020Z AUTO 25005KT 9999 SCT210/// 23/19 Q1016
  • 161950Z AUTO 25005KT 9999 FEW034/// 23/20 Q1016
  • 161920Z AUTO 24006KT 9999 FEW032/// BKN190/// 23/19 Q1016
  • 161850Z AUTO 24006KT 9999 FEW200/// 23/19 Q1016
  • 161820Z AUTO 25007KT 9999 BKN210/// 24/19 Q1015
  • 161750Z AUTO 26010KT 9999 NCD 24/19 Q1015

TAF TAF LICA
Valid from the 16 at 18:00 until the 17 at 18:00 UTC


161700Z 1618/1718 27011KT 9999 FEW030
BECMG 1619/1621 VRB06KT
TEMPO 1621/1624 RA
BECMG 1706/1708 27014KT



MET'MAP, your aeronautical weather chart ! - Copyright ORBIFLY December 2007 - Disclaimer

ORBIFLY MET'MAP TEAM :

Programming & Development : Alexandra Zaïnal
Original concept : Baudouin d'Aumeries
Technical & hardware support : Manuel Goepfert
Assistance : Marc-Olivier Méhu




SOURCES & CREDITS :

   NOAA